Map

Track Data

SID SEASON NUMBER BASIN SUBBASIN NAME ISO_TIME NATURE LAT LON WMO_WIND WMO_PRES WMO_AGENCY TRACK_TYPE DIST2LAND LANDFALL IFLAG USA_AGENCY USA_ATCF_ID USA_LAT USA_LON USA_RECORD USA_STATUS USA_WIND USA_PRES USA_SSHS USA_R34_NE USA_R34_SE USA_R34_SW USA_R34_NW USA_R50_NE USA_R50_SE USA_R50_SW USA_R50_NW USA_R64_NE USA_R64_SE USA_R64_SW USA_R64_NW USA_POCI USA_ROCI USA_RMW USA_EYE TOKYO_LAT TOKYO_LON TOKYO_GRADE TOKYO_WIND TOKYO_PRES TOKYO_R50_DIR TOKYO_R50_LONG TOKYO_R50_SHORT TOKYO_R30_DIR TOKYO_R30_LONG TOKYO_R30_SHORT TOKYO_LAND CMA_LAT CMA_LON CMA_CAT CMA_WIND CMA_PRES HKO_LAT HKO_LON HKO_CAT HKO_WIND HKO_PRES NEWDELHI_LAT NEWDELHI_LON NEWDELHI_GRADE NEWDELHI_WIND NEWDELHI_PRES NEWDELHI_CI NEWDELHI_DP NEWDELHI_POCI REUNION_LAT REUNION_LON REUNION_TYPE REUNION_WIND REUNION_PRES REUNION_TNUM REUNION_CI REUNION_RMW REUNION_R34_NE REUNION_R34_SE REUNION_R34_SW REUNION_R34_NW REUNION_R50_NE REUNION_R50_SE REUNION_R50_SW REUNION_R50_NW REUNION_R64_NE REUNION_R64_SE REUNION_R64_SW REUNION_R64_NW BOM_LAT BOM_LON BOM_TYPE BOM_WIND BOM_PRES BOM_TNUM BOM_CI BOM_RMW BOM_R34_NE BOM_R34_SE BOM_R34_SW BOM_R34_NW BOM_R50_NE BOM_R50_SE BOM_R50_SW BOM_R50_NW BOM_R64_NE BOM_R64_SE BOM_R64_SW BOM_R64_NW BOM_ROCI BOM_POCI BOM_EYE BOM_POS_METHOD BOM_PRES_METHOD NADI_LAT NADI_LON NADI_CAT NADI_WIND NADI_PRES WELLINGTON_LAT WELLINGTON_LON WELLINGTON_WIND WELLINGTON_PRES DS824_LAT DS824_LON DS824_STAGE DS824_WIND DS824_PRES TD9636_LAT TD9636_LON TD9636_STAGE TD9636_WIND TD9636_PRES TD9635_LAT TD9635_LON TD9635_WIND TD9635_PRES TD9635_ROCI NEUMANN_LAT NEUMANN_LON NEUMANN_CLASS NEUMANN_WIND NEUMANN_PRES MLC_LAT MLC_LON MLC_CLASS MLC_WIND MLC_PRES USA_GUST BOM_GUST BOM_GUST_PER REUNION_GUST REUNION_GUST_PER USA_SEAHGT USA_SEARAD_NE USA_SEARAD_SE USA_SEARAD_SW USA_SEARAD_NW STORM_SPEED STORM_DIR
1859224N28287 1859 15 NA NA NOT_NAMED 1859-08-11 12:00:00 TS 28.2000 -73.2000 main 588 588 _____________O -1 28.2000 -73.2000 TD 30 6 349
1859224N28287 1859 15 NA NA NOT_NAMED 1859-08-11 15:00:00 TS 28.4775 -73.2624 main 601 601 _____________P -1 28.4775 -73.2624 TD 30 6 352
1859224N28287 1859 15 NA NA NOT_NAMED 1859-08-11 18:00:00 TS 28.8000 -73.3000 main 622 622 _____________O -1 28.8000 -73.3000 TD 30 7 356
1859224N28287 1859 15 NA NA NOT_NAMED 1859-08-11 21:00:00 TS 29.1925 -73.3002 main 652 643 _____________P -1 29.1925 -73.3002 TD 32 8 1
1859224N28287 1859 15 NA NA NOT_NAMED 1859-08-12 00:00:00 TS 29.6000 -73.3000 main 643 613 _____________O -1 29.6000 -73.3000 TS 35 8 357
1859224N28287 1859 15 NA NA NOT_NAMED 1859-08-12 03:00:00 TS 29.9650 -73.3425 main 603 570 _____________P -1 29.9650 -73.3425 TS 35 7 353
1859224N28287 1859 15 NA NA NOT_NAMED 1859-08-12 06:00:00 TS 30.3000 -73.4000 main 570 541 _____________O -1 30.3000 -73.4000 TS 35 7 352
1859224N28287 1859 15 NA NA NOT_NAMED 1859-08-12 09:00:00 TS 30.6225 -73.4426 main 541 507 _____________P -1 30.6225 -73.4426 TS 35 6 352
1859224N28287 1859 15 NA NA NOT_NAMED 1859-08-12 12:00:00 TS 30.9000 -73.5000 main 507 483 _____________O -1 30.9000 -73.5000 TS 35 5 344
1859224N28287 1859 15 NA NA NOT_NAMED 1859-08-12 15:00:00 TS 31.1150 -73.6000 main 483 460 _____________P -1 31.1150 -73.6000 TS 35 4 337
1859224N28287 1859 15 NA NA NOT_NAMED 1859-08-12 18:00:00 TS 31.3000 -73.7000 main 460 441 _____________O -1 31.3000 -73.7000 TS 35 4 341
1859224N28287 1859 15 NA NA NOT_NAMED 1859-08-12 21:00:00 TS 31.4925 -73.7501 main 436 418 _____________P -1 31.4925 -73.7501 TS 37 4 348
1859224N28287 1859 15 NA NA NOT_NAMED 1859-08-13 00:00:00 TS 31.7000 -73.8000 main 418 394 _____________O -1 31.7000 -73.8000 TS 40 5 345
1859224N28287 1859 15 NA NA NOT_NAMED 1859-08-13 03:00:00 TS 31.9500 -73.8999 main 385 362 _____________P -1 31.9500 -73.8999 TS 40 5 341
1859224N28287 1859 15 NA NA NOT_NAMED 1859-08-13 06:00:00 TS 32.2000 -74.0000 main 362 345 _____________O -1 32.2000 -74.0000 TS 40 5 345
1859224N28287 1859 15 NA NA NOT_NAMED 1859-08-13 09:00:00 TS 32.4150 -74.0501 main 339 322 _____________P -1 32.4150 -74.0501 TS 40 4 348
1859224N28287 1859 15 NA NA NOT_NAMED 1859-08-13 12:00:00 TS 32.6000 -74.1000 main 322 299 _____________O -1 32.6000 -74.1000 TS 40 4 341
1859224N28287 1859 15 NA NA NOT_NAMED 1859-08-13 15:00:00 TS 32.7650 -74.2000 main 299 285 _____________P -1 32.7650 -74.2000 TS 40 3 331
1859224N28287 1859 15 NA NA NOT_NAMED 1859-08-13 18:00:00 TS 32.9000 -74.3000 main 285 270 _____________O -1 32.9000 -74.3000 TS 40 3 331
1859224N28287 1859 15 NA NA NOT_NAMED 1859-08-13 21:00:00 TS 33.0000 -74.3576 main 270 263 _____________P -1 33.0000 -74.3576 TS 42 2 337
1859224N28287 1859 15 NA NA NOT_NAMED 1859-08-14 00:00:00 TS 33.1000 -74.4000 main 263 255 _____________O -1 33.1000 -74.4000 TS 45 3 342
1859224N28287 1859 15 NA NA NOT_NAMED 1859-08-14 03:00:00 TS 33.2500 -74.4500 main 248 234 _____________P -1 33.2500 -74.4500 TS 45 3 346
1859224N28287 1859 15 NA NA NOT_NAMED 1859-08-14 06:00:00 TS 33.4000 -74.5000 main 234 219 _____________O -1 33.4000 -74.5000 TS 45 3 340
1859224N28287 1859 15 NA NA NOT_NAMED 1859-08-14 09:00:00 TS 33.5000 -74.5575 main 219 212 _____________P -1 33.5000 -74.5575 TS 45 2 337
1859224N28287 1859 15 NA NA NOT_NAMED 1859-08-14 12:00:00 TS 33.6000 -74.6000 main 212 205 _____________O -1 33.6000 -74.6000 TS 45 3 351
1859224N28287 1859 15 NA NA NOT_NAMED 1859-08-14 15:00:00 TS 33.7500 -74.6075 main 198 191 _____________P -1 33.7500 -74.6075 TS 45 3 0
1859224N28287 1859 15 NA NA NOT_NAMED 1859-08-14 18:00:00 TS 33.9000 -74.6000 main 191 185 _____________O -1 33.9000 -74.6000 TS 45 3 357
1859224N28287 1859 15 NA NA NOT_NAMED 1859-08-14 21:00:00 TS 34.0000 -74.6149 main 185 179 _____________P -1 34.0000 -74.6149 TS 45 2 8
1859224N28287 1859 15 NA NA NOT_NAMED 1859-08-15 00:00:00 TS 34.1000 -74.6000 main 179 173 _____________O -1 34.1000 -74.6000 TS 45 3 16
1859224N28287 1859 15 NA NA NOT_NAMED 1859-08-15 03:00:00 TS 34.2500 -74.5300 main 182 177 _____________P -1 34.2500 -74.5300 TS 45 3 28
1859224N28287 1859 15 NA NA NOT_NAMED 1859-08-15 06:00:00 TS 34.4000 -74.4000 main 178 176 _____________O -1 34.4000 -74.4000 TS 45 3 42
1859224N28287 1859 15 NA NA NOT_NAMED 1859-08-15 09:00:00 TS 34.4769 -74.2816 main 176 176 _____________P -1 34.4769 -74.2816 TS 45 4 59
1859224N28287 1859 15 NA NA NOT_NAMED 1859-08-15 12:00:00 TS 34.6000 -74.0000 main 190 189 _____________O -1 34.6000 -74.0000 TS 45 8 61
1859224N28287 1859 15 NA NA NOT_NAMED 1859-08-15 15:00:00 TS 34.8781 -73.4109 main 214 214 _____________P -1 34.8781 -73.4109 TS 45 12 61
1859224N28287 1859 15 NA NA NOT_NAMED 1859-08-15 18:00:00 TS 35.2000 -72.7000 main 261 261 _____________O -1 35.2000 -72.7000 TS 45 12 62
1859224N28287 1859 15 NA NA NOT_NAMED 1859-08-15 21:00:00 TS 35.4571 -72.0919 main 308 308 _____________P -1 35.4571 -72.0919 TS 45 11 63
1859224N28287 1859 15 NA NA NOT_NAMED 1859-08-16 00:00:00 TS 35.7000 -71.5000 main 360 360 _____________O -1 35.7000 -71.5000 TS 45 11 63
1859224N28287 1859 15 NA NA NOT_NAMED 1859-08-16 03:00:00 TS 35.9498 -70.8922 main 413 413 _____________P -1 35.9498 -70.8922 TS 47 11 63
1859224N28287 1859 15 NA NA NOT_NAMED 1859-08-16 06:00:00 TS 36.2000 -70.3000 main 468 468 _____________O -1 36.2000 -70.3000 TS 50 11 63
1859224N28287 1859 15 NA NA NOT_NAMED 1859-08-16 09:00:00 TS 36.4273 -69.7268 main 520 516 _____________P -1 36.4273 -69.7268 TS 50 10 61
1859224N28287 1859 15 NA NA NOT_NAMED 1859-08-16 12:00:00 TS 36.7000 -69.2000 main 542 516 _____________O -1 36.7000 -69.2000 TS 50 10 51
1859224N28287 1859 15 NA NA NOT_NAMED 1859-08-16 15:00:00 TS 37.0771 -68.7421 main 518 489 _____________P -1 37.0771 -68.7421 TS 52 11 42
1859224N28287 1859 15 NA NA NOT_NAMED 1859-08-16 18:00:00 TS 37.5000 -68.3000 main 489 459 _____________O -1 37.5000 -68.3000 TS 55 11 41
1859224N28287 1859 15 NA NA NOT_NAMED 1859-08-16 21:00:00 TS 37.8993 -67.8439 main 462 438 _____________P -1 37.8993 -67.8439 TS 55 12 45
1859224N28287 1859 15 NA NA NOT_NAMED 1859-08-17 00:00:00 TS 38.3667 -67.2000 90 hurdat_atl main 437 426 O____________O hurdat_atl AL021859 38.5000 -67.0000 HU 90 2 38.3000 -67.3000 TS 55 14 46
1859224N28287 1859 15 NA NA NOT_NAMED 1859-08-17 03:00:00 TS 38.8665 -66.5483 main 429 424 P____________P AL021859 39.0254 -66.5016 HU 90 2 38.7075 -66.5949 TS 57 14 46
1859224N28287 1859 15 NA NA NOT_NAMED 1859-08-17 06:00:00 TS 39.3400 -65.9200 90 hurdat_atl main 436 422 O____________O hurdat_atl AL021859 39.5000 -66.0000 HU 90 2 39.1000 -65.8000 TS 60 13 48
1859224N28287 1859 15 NA NA NOT_NAMED 1859-08-17 09:00:00 TS 39.7392 -65.3153 main 422 390 P____________P AL021859 39.8873 -65.4994 HU 90 2 39.4431 -64.9472 TS 60 12 51
1859224N28287 1859 15 NA NA NOT_NAMED 1859-08-17 12:00:00 TS 40.0667 -64.7333 90 hurdat_atl main 381 354 O____________O hurdat_atl AL021859 40.2000 -65.0000 HU 90 2 39.8000 -64.2000 TS 60 10 51
1859224N28287 1859 15 NA NA NOT_NAMED 1859-08-17 15:00:00 TS 40.3953 -64.2485 main 356 332 P____________P AL021859 40.4797 -64.5071 HU 90 2 40.2266 -63.7313 TS 60 10 48
1859224N28287 1859 15 NA NA NOT_NAMED 1859-08-17 18:00:00 TS 40.7000 -63.8000 90 hurdat_atl main 334 318 O____________O hurdat_atl AL021859 40.7000 -64.0000 HU 90 2 40.7000 -63.4000 TS 60 9 50
1859224N28287 1859 15 NA NA NOT_NAMED 1859-08-17 21:00:00 TS 40.9713 -63.3284 main 322 317 P____________P AL021859 40.8571 -63.4716 HU 90 2 41.1998 -63.0421 TS 62 9 54
1859224N28287 1859 15 NA NA NOT_NAMED 1859-08-18 00:00:00 TS 41.2333 -62.8333 90 hurdat_atl main 327 318 O____________O hurdat_atl AL021859 41.0000 -62.9000 HU 90 2 41.7000 -62.7000 HU 65 982 9 55
1859224N28287 1859 15 NA NA NOT_NAMED 1859-08-18 03:00:00 TS 41.5165 -62.2957 main 326 323 P____________P AL021859 41.1997 -62.2726 HU 90 2 42.1499 -62.3419 HU 65 10 55
1859224N28287 1859 15 NA NA NOT_NAMED 1859-08-18 06:00:00 TS 41.8000 -61.7333 90 hurdat_atl main 327 316 O____________O hurdat_atl AL021859 41.4000 -61.6000 HU 90 2 42.6000 -62.0000 HU 65 10 56
1859224N28287 1859 15 NA NA NOT_NAMED 1859-08-18 09:00:00 TS 42.0816 -61.1615 main 316 309 P____________P AL021859 41.5725 -60.8925 HU 90 2 43.0998 -61.6994 HU 65 10 58
1859224N28287 1859 15 NA NA NOT_NAMED 1859-08-18 12:00:00 TS 42.3333 -60.6000 90 hurdat_atl main 317 305 O____________O hurdat_atl AL021859 41.7000 -60.2000 HU 90 2 43.6000 -61.4000 HU 65 9 61
1859224N28287 1859 15 NA NA NOT_NAMED 1859-08-18 15:00:00 TS 42.5264 -60.0628 main 310 299 P____________P AL021859 41.7647 -59.5695 HU 90 2 44.0500 -61.0496 HU 57 8 64
1859224N28287 1859 15 NA NA NOT_NAMED 1859-08-18 18:00:00 MX 42.7000 -59.5667 90 hurdat_atl main 302 297 O____________O hurdat_atl AL021859 41.8000 -59.0000 HU 90 2 44.5000 -60.7000 EX 50 8 62
1859224N28287 1859 15 NA NA NOT_NAMED 1859-08-18 21:00:00 MX 42.8998 -59.1081 main 301 296 P____________P AL021859 41.8498 -58.4625 HU 90 2 44.9998 -60.3993 EX 47 7 58
1859224N28287 1859 15 NA NA NOT_NAMED 1859-08-19 00:00:00 MX 43.1000 -58.7000 90 hurdat_atl main 301 295 O____________O hurdat_atl AL021859 41.9000 -58.0000 HU 90 2 45.5000 -60.1000 EX 45 7 55
1859224N28287 1859 15 NA NA NOT_NAMED 1859-08-19 03:00:00 MX 43.2932 -58.3250 main 304 304 P____________P AL021859 41.9573 -57.6125 HU 90 2 45.9650 -59.7498 EX 42 6 81
1859224N28287 1859 15 NA NA NOT_NAMED 1859-08-19 06:00:00 MX 43.2000 -57.8727 90 hurdat_atl main 332 332 O____________O hurdat_atl AL021859 42.0000 -57.3000 HU 90 2 46.4000 -59.4000 EX 40 7 117
1859224N28287 1859 15 NA NA NOT_NAMED 1859-08-19 09:00:00 MX 42.9674 -57.4335 main 374 374 P____________P AL021859 42.0074 -57.0199 HU 90 2 46.8076 -59.0881 EX 37 7 128
1859224N28287 1859 15 NA NA NOT_NAMED 1859-08-19 12:00:00 MX 42.7429 -57.0857 90 hurdat_atl main 415 415 O____________O hurdat_atl AL021859 42.0000 -56.8000 HU 90 2 47.2000 -58.8000 EX 35 11 149
1859224N28287 1859 15 NA NA NOT_NAMED 1859-08-19 15:00:00 TS 41.9975 -56.6351 main 502 502 P_____________ AL021859 41.9975 -56.6351 HU 90 2 EX 9 150
1859224N28287 1859 15 NA NA NOT_NAMED 1859-08-19 18:00:00 TS 42.0000 -56.5000 90 hurdat_atl main 507 O_____________ hurdat_atl AL021859 42.0000 -56.5000 HU 90 2 2 89

About IBTrACS Database

This database is a web-friendly format of International Best Track Archive for Climate Stewardship (IBTrACS), a global best track data archive curated by NOAA dating back to 1842.

Updated: 2021-10-19